YCBG weather

Hobart Cambridge Airport
Tasmania, Australia

Public forecast

Using degrees Celsius for public forecast. Weather courtesy of forecast.io.

METAR (pilot weather report)

Closest report is Hobart International Airport, 1.6 nm (3.0 km) ESE. Retrieved 2018/11/16 21:30 UTC (15 minutes ago):

YMHB 162130Z 32010KT 9999 FEW040 12/04 Q1023

TAF (pilot weather forecast)

Closest forecast is Hobart International Airport, 1.6 nm (3.0 km) ESE. Retrieved 2018/11/16 18:36 UTC (3 hours ago):

TAF YMHB 161734Z 1618/1718 31008KT 9999 FEW015 FM170000 17014KT 9999 -SHRA SCT015 SCT035 FM170900 21005KT 9999 BKN025